KSFB

Orlando Sanford International Airport

Orlando, Florida, USA
METAR KSFB 160053Z 21003KT 10SM BKN060 18/17 A3007 RMK AO2 SLP181 T01780172
Observed Flight Rules
Dec-16 @ 00:53 UTC (22 minutes ago) Visual Flight Rules
Wind Visibility Clouds
210° at 3 knots 10 miles
  • Broken at 6,000' AGL
Temperatures Readings
Current 18°C / 64°F
Dewpoint 17°C / 63°F
Humidity 94%
Altimeter 30.07" Hg
Pressure 1018.1 hPa
Elevation 17
METAR KSFB 160053Z 21003KT 10SM BKN060 18/17 A3007 RMK AO2 SLP181 T01780172
Observed Flight Rules
Dec-16 @ 00:53 UTC
(22 minutes ago)
VFR
Wind Visibility
210° at 3 knots 10 miles
Clouds
  • Broken at 6,000' AGL
Temperature Dewpoint
18°C / 64°F 17°C / 63°F
Humidity Altimeter Pressure
94% 30.07" Hg 1018.1 hPa